CSH2 weather

Île-aux-Grues Airport
Île-aux-Grues, Quebec, Canada

Public forecast

Using degrees Celsius for public forecast. Weather courtesy of forecast.io.

METAR (pilot weather report)

Closest report is Quebec Jean Lesage International Airport, 39.1 nm (72.4 km) WSW. Retrieved 2019/09/16 03:00 UTC (2 minutes ago):

CYQB 160300Z 21008KT 15SM FEW032 BKN068 12/10 A2999 RMK SC1AC6 SLP160

TAF (pilot weather forecast)

Forecast is more than 12 hours old.

Closest forecast is Charlevoix Airport, 34.0 nm (63.0 km) NNE. Retrieved 2018/06/10 18:00 UTC (1 year ago):

TAF CYML 101730Z 1018/1106 12005KT P6SM FEW060 FM102100 14006KT P6SM SCT080 BECMG 1021/1023 VRB03KT RMK NXT FCST BY 110000Z